createdAt,value
2019-06-10T00:01:06.024Z,1999.90
2019-06-10T00:02:07.276Z,1999.90
2019-06-10T00:03:11.500Z,1999.90
2019-06-10T00:04:14.228Z,1999.90
2019-06-10T00:05:17.204Z,1999.90
2019-06-10T00:06:21.005Z,1999.90
2019-06-10T00:07:23.672Z,1999.90
2019-06-10T00:08:26.111Z,1999.90
2019-06-10T00:09:31.138Z,1999.90
2019-06-10T00:10:33.278Z,1999.90
2019-06-10T00:11:35.704Z,1999.90
2019-06-10T00:12:38.137Z,1999.90
2019-06-10T00:13:41.479Z,1999.90
2019-06-10T00:14:44.234Z,1999.90
2019-06-10T00:15:46.676Z,1999.90
2019-06-10T00:16:50.887Z,1999.90
2019-06-10T00:18:13.716Z,1999.90
2019-06-10T00:18:57.987Z,1999.90
2019-06-10T00:20:03.391Z,1999.90
2019-06-10T00:21:05.526Z,1999.90
2019-06-10T00:22:11.538Z,1999.90
2019-06-10T00:23:13.651Z,1999.90
2019-06-10T00:24:16.070Z,1999.90
2019-06-10T00:25:20.852Z,1999.90
2019-06-10T00:26:24.943Z,1999.90
2019-06-10T00:27:27.300Z,1999.90
2019-06-10T00:28:31.122Z,1999.90
2019-06-10T00:29:33.783Z,1999.90
2019-06-10T00:30:36.237Z,1999.90
2019-06-10T00:31:38.837Z,1999.90
2019-06-10T00:32:41.325Z,1999.90
2019-06-10T00:33:43.838Z,1999.90
2019-06-10T00:34:46.258Z,1999.90
2019-06-10T00:35:48.743Z,1999.90
2019-06-10T00:36:51.362Z,1999.90
2019-06-10T00:37:54.789Z,1999.90
2019-06-10T00:38:57.288Z,1999.90
2019-06-10T00:40:02.171Z,1999.90
2019-06-10T00:41:06.920Z,1999.90
2019-06-10T00:42:10.711Z,1999.90
2019-06-10T00:43:13.665Z,1999.90
2019-06-10T00:44:16.318Z,1999.90
2019-06-10T00:45:21.445Z,1999.90
2019-06-10T00:46:23.111Z,1999.90
2019-06-10T00:47:25.725Z,1999.90
2019-06-10T00:48:29.329Z,1999.90
2019-06-10T00:49:32.566Z,1999.90
2019-06-10T00:50:34.976Z,1999.90
2019-06-10T00:51:37.460Z,1999.90
2019-06-10T00:52:42.165Z,1999.90
2019-06-10T00:53:44.470Z,1999.90
2019-06-10T00:54:46.927Z,1999.90
2019-06-10T00:55:51.547Z,1999.90
2019-06-10T00:56:54.001Z,1999.90
2019-06-10T00:57:58.214Z,1999.90
2019-06-10T00:59:02.315Z,1999.90
2019-06-10T01:00:17.032Z,1999.90
2019-06-10T01:01:14.440Z,1999.90
2019-06-10T01:02:16.408Z,1999.90
2019-06-10T01:03:20.899Z,1999.90
2019-06-10T01:04:23.382Z,1999.90
2019-06-10T01:05:26.089Z,1999.90
2019-06-10T01:06:31.880Z,1999.90
2019-06-10T01:07:34.503Z,1999.90
2019-06-10T01:08:40.576Z,1999.90
2019-06-10T01:09:44.295Z,1999.90
2019-06-10T01:10:46.812Z,1999.90
2019-06-10T01:11:51.668Z,1999.90
2019-06-10T01:12:53.591Z,1999.90
2019-06-10T01:13:56.221Z,1999.90
2019-06-10T01:15:00.756Z,1999.90
2019-06-10T01:16:03.462Z,1999.90
2019-06-10T01:17:06.107Z,1999.90
2019-06-10T01:18:22.110Z,1999.90
2019-06-10T01:19:15.674Z,1999.90
2019-06-10T01:20:17.249Z,1999.90
2019-06-10T01:21:21.791Z,1999.90
2019-06-10T01:22:25.606Z,1999.90
2019-06-10T01:23:28.055Z,1999.90
2019-06-10T01:24:32.517Z,1999.90
2019-06-10T01:25:34.954Z,1999.90
2019-06-10T01:26:37.457Z,1999.90
2019-06-10T01:27:40.895Z,1999.90
2019-06-10T01:28:43.661Z,1999.90
2019-06-10T01:29:46.134Z,1999.90
2019-06-10T01:30:48.562Z,1999.90
2019-06-10T01:31:51.428Z,1999.90
2019-06-10T01:32:54.152Z,1999.90
2019-06-10T01:33:56.593Z,1999.90
2019-06-10T01:35:01.333Z,1999.90
2019-06-10T01:36:04.008Z,1999.90
2019-06-10T01:37:06.756Z,1999.90
2019-06-10T01:38:10.571Z,1999.90
2019-06-10T01:39:16.107Z,1999.90
2019-06-10T01:40:20.766Z,1999.90
2019-06-10T01:41:22.592Z,1999.90
2019-06-10T01:42:25.048Z,1999.90
2019-06-10T01:43:27.500Z,1999.90
2019-06-10T01:44:31.050Z,1999.90
2019-06-10T01:45:34.045Z,1999.90
2019-06-10T01:46:36.479Z,1999.90
2019-06-10T01:47:38.912Z,1999.90
2019-06-10T01:48:47.223Z,1999.90
2019-06-10T01:49:45.701Z,1999.90
2019-06-10T01:50:48.148Z,1999.90
2019-06-10T01:51:51.590Z,1999.90
2019-06-10T01:52:54.405Z,1999.90
2019-06-10T01:53:56.842Z,1999.90
2019-06-10T01:55:01.565Z,1999.90
2019-06-10T01:56:05.631Z,1999.90
2019-06-10T01:57:08.105Z,1999.90
2019-06-10T01:58:14.161Z,1999.90
2019-06-10T01:59:15.735Z,1999.90
2019-06-10T02:00:25.792Z,1999.90
2019-06-10T02:01:54.715Z,1999.90
2019-06-10T02:02:57.161Z,1999.90
2019-06-10T02:04:00.896Z,1999.90
2019-06-10T02:05:04.104Z,1999.90
2019-06-10T02:06:06.639Z,1999.90
2019-06-10T02:07:11.539Z,1999.90
2019-06-10T02:08:15.898Z,1999.90
2019-06-10T02:09:18.795Z,1999.90
2019-06-10T02:10:22.998Z,1999.90
2019-06-10T02:11:25.791Z,1999.90
2019-06-10T02:12:31.328Z,1999.90
2019-06-10T02:13:33.576Z,1999.90
2019-06-10T02:14:36.629Z,1999.90
2019-06-10T02:15:41.043Z,1999.90
2019-06-10T02:16:43.531Z,1999.90
2019-06-10T02:17:45.953Z,1999.90
2019-06-10T02:18:59.802Z,1999.90
2019-06-10T02:19:52.874Z,1999.90
2019-06-10T02:20:55.700Z,1999.90
2019-06-10T02:21:58.118Z,1999.90
2019-06-10T02:23:02.379Z,1999.90
2019-06-10T02:24:04.806Z,1999.90
2019-06-10T02:25:07.493Z,1999.90
2019-06-10T02:26:11.827Z,1999.90
2019-06-10T02:27:14.819Z,1999.90
2019-06-10T02:28:19.682Z,1999.90
2019-06-10T02:29:23.597Z,1999.90
2019-06-10T02:30:40.250Z,1999.90
2019-06-10T02:31:37.537Z,1999.90
2019-06-10T02:32:37.665Z,1999.90
2019-06-10T02:33:41.770Z,1999.90
2019-06-10T02:35:01.318Z,1999.90
2019-06-10T02:35:49.401Z,1999.90
2019-06-10T02:36:53.628Z,1999.90
2019-06-10T02:37:56.352Z,1999.90
2019-06-10T02:38:58.841Z,1999.90
2019-06-10T02:40:04.554Z,1999.90
2019-06-10T02:41:05.571Z,1999.90
2019-06-10T02:42:19.056Z,1999.90
2019-06-10T02:43:31.724Z,1999.90
2019-06-10T02:44:33.334Z,1999.90
2019-06-10T02:45:37.125Z,1999.90
2019-06-10T02:46:36.754Z,1999.90
2019-06-10T02:47:39.280Z,1999.90
2019-06-10T02:48:43.616Z,1999.90
2019-06-10T02:49:57.461Z,1999.90
2019-06-10T02:51:04.011Z,1999.90
2019-06-10T02:52:22.386Z,1999.90
2019-06-10T02:53:30.533Z,1999.90
2019-06-10T02:54:31.360Z,1999.90
2019-06-10T02:55:35.130Z,1999.90
2019-06-10T02:56:37.091Z,1999.90
2019-06-10T02:57:40.597Z,1999.90
2019-06-10T02:58:45.153Z,1999.90
2019-06-10T02:59:48.052Z,1999.90
2019-06-10T03:00:54.293Z,1999.90
2019-06-10T03:01:54.954Z,1999.90
2019-06-10T03:02:57.405Z,1999.90
2019-06-10T03:03:59.859Z,1999.90
2019-06-10T03:05:04.573Z,1999.90
2019-06-10T03:06:08.931Z,1999.90
2019-06-10T03:07:13.755Z,1999.90
2019-06-10T03:08:16.164Z,1999.90
2019-06-10T03:09:21.665Z,1999.90
2019-06-10T03:10:29.962Z,1999.90
2019-06-10T03:11:32.277Z,1999.90
2019-06-10T03:12:33.208Z,1999.90
2019-06-10T03:13:36.663Z,1999.90
2019-06-10T03:14:45.074Z,1999.90
2019-06-10T03:15:54.212Z,1999.90
2019-06-10T03:16:58.612Z,1999.90
2019-06-10T03:18:02.372Z,1999.90
2019-06-10T03:19:04.989Z,1999.90
2019-06-10T03:20:07.422Z,1999.90
2019-06-10T03:21:12.240Z,1999.90
2019-06-10T03:22:14.414Z,1999.90
2019-06-10T03:23:17.936Z,1999.90
2019-06-10T03:24:22.417Z,1999.90
2019-06-10T03:25:27.729Z,1999.90
2019-06-10T03:26:32.268Z,1999.90
2019-06-10T03:27:34.859Z,1999.90
2019-06-10T03:28:37.288Z,1999.90
2019-06-10T03:29:42.031Z,1999.90
2019-06-10T03:30:52.879Z,1999.90
2019-06-10T03:31:48.902Z,1999.90
2019-06-10T03:32:55.330Z,1999.90
2019-06-10T03:33:55.879Z,1999.90
2019-06-10T03:34:58.389Z,1999.90
2019-06-10T03:36:02.967Z,1999.90
2019-06-10T03:37:05.149Z,1999.90
2019-06-10T03:38:07.566Z,1999.90
2019-06-10T03:39:10.130Z,1999.90
2019-06-10T03:40:14.004Z,1999.90
2019-06-10T03:41:16.554Z,1999.90
2019-06-10T03:42:19.163Z,1999.90
2019-06-10T03:43:23.792Z,1999.90
2019-06-10T03:44:27.090Z,1999.90
2019-06-10T03:45:32.438Z,1999.90
2019-06-10T03:46:34.833Z,1999.90
2019-06-10T03:47:37.297Z,1999.90
2019-06-10T03:48:40.135Z,1999.90
2019-06-10T03:49:52.347Z,1999.90
2019-06-10T03:50:47.218Z,1999.90
2019-06-10T03:51:49.654Z,1999.90
2019-06-10T03:52:52.499Z,1999.90
2019-06-10T03:53:55.151Z,1999.90
2019-06-10T03:54:59.362Z,1999.90
2019-06-10T03:56:02.266Z,1999.90
2019-06-10T03:57:05.291Z,1999.90
2019-06-10T03:58:07.707Z,1999.90
2019-06-10T03:59:12.230Z,1999.90
2019-06-10T04:00:17.043Z,1999.90
2019-06-10T04:01:21.966Z,1999.90
2019-06-10T04:02:25.589Z,1999.90
2019-06-10T04:03:29.360Z,1999.90
2019-06-10T04:04:32.873Z,1999.90
2019-06-10T04:05:36.211Z,1999.90
2019-06-10T04:06:38.867Z,1999.90
2019-06-10T04:07:42.737Z,1999.90
2019-06-10T04:08:45.571Z,1999.90
2019-06-10T04:09:48.038Z,1999.90
2019-06-10T04:10:52.046Z,1999.90
2019-06-10T04:11:55.076Z,1999.90
2019-06-10T04:12:57.560Z,1999.90
2019-06-10T04:14:02.234Z,1999.90
2019-06-10T04:15:07.405Z,1999.90
2019-06-10T04:16:09.859Z,1999.90
2019-06-10T04:17:13.051Z,1999.90
2019-06-10T04:18:17.926Z,1999.90
2019-06-10T04:19:23.566Z,1999.90
2019-06-10T04:20:27.506Z,1999.90
2019-06-10T04:21:29.288Z,1999.90
2019-06-10T04:22:32.978Z,1999.90
2019-06-10T04:23:35.715Z,1999.90
2019-06-10T04:24:38.347Z,1999.90
2019-06-10T04:25:42.848Z,1999.90
2019-06-10T04:26:45.352Z,1999.90
2019-06-10T04:27:47.770Z,1999.90
2019-06-10T04:28:50.236Z,1999.90
2019-06-10T04:29:52.877Z,1999.90
2019-06-10T04:30:55.310Z,1999.90
2019-06-10T04:31:57.728Z,1999.90
2019-06-10T04:33:02.334Z,1999.90
2019-06-10T04:34:04.775Z,1999.90
2019-06-10T04:35:07.581Z,1999.90
2019-06-10T04:36:10.015Z,1999.90
2019-06-10T04:37:12.732Z,1999.90
2019-06-10T04:38:15.232Z,1999.90
2019-06-10T04:39:18.462Z,1999.90
2019-06-10T04:40:23.564Z,1999.90
2019-06-10T04:41:26.483Z,1999.90
2019-06-10T04:42:30.124Z,1999.90
2019-06-10T04:43:32.840Z,1999.90
2019-06-10T04:44:35.395Z,1999.90
2019-06-10T04:45:37.822Z,1999.90
2019-06-10T04:46:42.608Z,1999.90
2019-06-10T04:47:44.709Z,1999.90
2019-06-10T04:48:47.144Z,1999.90
2019-06-10T04:49:49.590Z,1999.90
2019-06-10T04:50:53.357Z,1999.90
2019-06-10T04:51:56.456Z,1999.90
2019-06-10T04:52:58.965Z,1999.90
2019-06-10T04:54:02.971Z,1999.90
2019-06-10T04:55:05.930Z,1999.90
2019-06-10T04:56:08.539Z,1999.90
2019-06-10T04:57:12.986Z,1999.90
2019-06-10T04:58:15.421Z,1999.90
2019-06-10T04:59:18.838Z,1999.90
2019-06-10T05:00:24.147Z,1999.90
2019-06-10T05:01:27.427Z,1999.90
2019-06-10T05:02:33.024Z,1999.90
2019-06-10T05:03:35.455Z,1999.90
2019-06-10T05:04:37.903Z,1999.90
2019-06-10T05:05:42.936Z,1999.90
2019-06-10T05:06:45.302Z,1999.90
2019-06-10T05:07:47.737Z,1999.90
2019-06-10T05:08:50.168Z,1999.90
2019-06-10T05:09:52.773Z,1999.90
2019-06-10T05:10:56.396Z,1999.90
2019-06-10T05:12:02.708Z,1999.90
2019-06-10T05:13:06.508Z,1999.90
2019-06-10T05:14:08.996Z,1999.90
2019-06-10T05:15:12.597Z,1999.90
2019-06-10T05:16:15.151Z,1999.90
2019-06-10T05:17:17.570Z,1999.90
2019-06-10T05:18:22.559Z,1999.90
2019-06-10T05:19:25.908Z,1999.90
2019-06-10T05:20:46.829Z,1999.90
2019-06-10T05:21:33.723Z,1999.90
2019-06-10T05:22:36.533Z,1999.90
2019-06-10T05:23:38.968Z,1999.90
2019-06-10T05:24:42.416Z,1999.90
2019-06-10T05:25:45.156Z,1999.90
2019-06-10T05:26:47.590Z,1999.90
2019-06-10T05:27:52.129Z,1999.90
2019-06-10T05:28:54.350Z,1999.90
2019-06-10T05:29:56.799Z,1999.90
2019-06-10T05:30:59.739Z,1999.90
2019-06-10T05:32:02.537Z,1999.90
2019-06-10T05:33:07.012Z,1999.90
2019-06-10T05:34:09.673Z,1999.90
2019-06-10T05:35:12.485Z,1999.90
2019-06-10T05:36:15.300Z,1999.90
2019-06-10T05:37:17.853Z,1999.90
2019-06-10T05:38:23.445Z,1999.90
2019-06-10T05:39:27.247Z,1999.90
2019-06-10T05:40:29.470Z,1999.90
2019-06-10T05:41:35.065Z,1999.90
2019-06-10T05:42:36.507Z,1999.90
2019-06-10T05:43:38.931Z,1999.90
2019-06-10T05:44:43.046Z,1999.90
2019-06-10T05:45:45.743Z,1999.90
2019-06-10T05:46:48.169Z,1999.90
2019-06-10T05:47:53.002Z,1999.90
2019-06-10T05:48:54.906Z,1999.90
2019-06-10T05:49:57.344Z,1999.90
2019-06-10T05:51:03.048Z,1999.90
2019-06-10T05:52:04.417Z,1999.90
2019-06-10T05:53:06.843Z,1999.90
2019-06-10T05:54:09.493Z,1999.90
2019-06-10T05:55:12.340Z,1999.90
2019-06-10T05:56:14.891Z,1999.90
2019-06-10T05:57:17.338Z,1999.90
2019-06-10T05:58:19.771Z,1999.90
2019-06-10T05:59:24.239Z,1999.90
2019-06-10T06:00:27.554Z,1999.90
2019-06-10T06:01:30.260Z,1999.90
2019-06-10T06:02:35.093Z,1999.90
2019-06-10T06:03:37.175Z,1999.90
2019-06-10T06:04:39.883Z,1999.90
2019-06-10T06:05:43.456Z,1999.90
2019-06-10T06:06:45.879Z,1999.90
2019-06-10T06:08:01.301Z,1999.90
2019-06-10T06:08:54.449Z,1999.90
2019-06-10T06:09:56.908Z,1999.90
2019-06-10T06:10:59.338Z,1999.90
2019-06-10T06:12:02.531Z,1999.90
2019-06-10T06:13:05.355Z,1999.90
2019-06-10T06:14:07.799Z,1999.90
2019-06-10T06:15:12.884Z,1999.90
2019-06-10T06:16:15.207Z,1999.90
2019-06-10T06:17:17.651Z,1999.90
2019-06-10T06:18:22.448Z,1999.90
2019-06-10T06:19:24.467Z,1999.90
2019-06-10T06:20:27.082Z,1999.90
2019-06-10T06:21:34.767Z,1999.90
2019-06-10T06:22:35.577Z,1999.90
2019-06-10T06:23:38.366Z,1999.90
2019-06-10T06:24:42.805Z,1999.90
2019-06-10T06:25:46.995Z,1999.90
2019-06-10T06:26:49.556Z,1999.90
2019-06-10T06:27:52.460Z,1999.90
2019-06-10T06:28:55.304Z,1999.90
2019-06-10T06:29:57.840Z,1999.90
2019-06-10T06:31:03.360Z,1999.90
2019-06-10T06:32:05.969Z,1999.90
2019-06-10T06:33:08.383Z,1999.90
2019-06-10T06:34:13.433Z,1999.90
2019-06-10T06:35:15.589Z,1999.90
2019-06-10T06:36:18.059Z,1999.90
2019-06-10T06:37:22.991Z,1999.90
2019-06-10T06:38:26.999Z,1999.90
2019-06-10T06:39:32.249Z,1999.90
2019-06-10T06:40:35.933Z,1999.90
2019-06-10T06:41:39.107Z,1999.90
2019-06-10T06:42:43.346Z,1999.90
2019-06-10T06:43:46.179Z,1999.90
2019-06-10T06:44:48.799Z,1999.90
2019-06-10T06:45:53.140Z,1527.93
2019-06-10T06:46:55.658Z,174.60
2019-06-10T06:47:58.090Z,130.87
2019-06-10T06:49:02.101Z,217.00
2019-06-10T06:50:05.746Z,225.38
2019-06-10T06:51:08.811Z,152.20
2019-06-10T06:52:12.802Z,199.65
2019-06-10T06:53:27.857Z,118.75
2019-06-10T06:54:19.848Z,135.60
2019-06-10T06:55:23.363Z,179.82
2019-06-10T06:56:26.190Z,186.25
2019-06-10T06:57:28.925Z,180.03
2019-06-10T06:58:33.455Z,1999.90
2019-06-10T06:59:37.380Z,1999.90
2019-06-10T07:00:59.272Z,1999.90
2019-06-10T07:01:44.707Z,1999.90
2019-06-10T07:02:47.365Z,1999.90
2019-06-10T07:03:50.023Z,1999.90
2019-06-10T07:04:52.683Z,1999.90
2019-06-10T07:05:55.376Z,1999.90
2019-06-10T07:06:59.689Z,1999.90
2019-06-10T07:08:02.695Z,1999.90
2019-06-10T07:09:08.212Z,1999.90
2019-06-10T07:10:12.211Z,1999.90
2019-06-10T07:11:17.071Z,1999.90
2019-06-10T07:12:23.293Z,1999.90
2019-06-10T07:13:25.828Z,1999.90
2019-06-10T07:14:28.600Z,1999.90
2019-06-10T07:15:42.176Z,1999.90
2019-06-10T07:16:46.303Z,1999.90
2019-06-10T07:17:48.417Z,1999.90
2019-06-10T07:18:53.929Z,1999.90
2019-06-10T07:19:57.675Z,1999.90
2019-06-10T07:21:02.661Z,1999.90
2019-06-10T07:22:12.490Z,1999.90
2019-06-10T07:23:09.785Z,1999.90
2019-06-10T07:24:12.770Z,1999.90
2019-06-10T07:25:15.467Z,1999.90
2019-06-10T07:26:22.025Z,1999.90
2019-06-10T07:27:24.036Z,1999.90
2019-06-10T07:28:26.907Z,1999.90
2019-06-10T07:29:29.360Z,1999.90
2019-06-10T07:30:34.261Z,1999.90
2019-06-10T07:31:36.943Z,1999.90
2019-06-10T07:32:44.467Z,1999.90
2019-06-10T07:33:47.257Z,1999.90
2019-06-10T07:34:49.424Z,1999.90
2019-06-10T07:35:53.480Z,1999.90
2019-06-10T07:36:56.380Z,1999.90
2019-06-10T07:37:58.805Z,1999.90
2019-06-10T07:39:03.476Z,1999.90
2019-06-10T07:40:05.678Z,1999.90
2019-06-10T07:41:08.208Z,1999.90
2019-06-10T07:42:10.626Z,1999.90
2019-06-10T07:43:13.085Z,1999.90
2019-06-10T07:44:15.529Z,1999.90
2019-06-10T07:45:18.164Z,1999.90
2019-06-10T07:46:22.795Z,1999.90
2019-06-10T07:47:24.932Z,1999.90
2019-06-10T07:48:29.908Z,1999.90
2019-06-10T07:49:33.887Z,1999.90
2019-06-10T07:50:37.794Z,1999.90
2019-06-10T07:51:41.983Z,1999.90
2019-06-10T07:52:46.788Z,1999.90
2019-06-10T07:53:49.596Z,1999.90
2019-06-10T07:54:53.093Z,1999.90
2019-06-10T07:55:55.692Z,1543.05
2019-06-10T07:56:58.111Z,1999.90
2019-06-10T07:58:02.556Z,1999.90
2019-06-10T07:59:05.420Z,1999.90
2019-06-10T08:00:08.261Z,1999.90
2019-06-10T08:01:12.865Z,1999.90
2019-06-10T08:02:15.130Z,1999.90
2019-06-10T08:03:17.856Z,1999.90
2019-06-10T08:04:22.526Z,1999.90
2019-06-10T08:05:24.788Z,1999.90
2019-06-10T08:06:27.202Z,1999.90
2019-06-10T08:07:29.935Z,1999.90
2019-06-10T08:08:33.011Z,1999.90
2019-06-10T08:09:37.255Z,1999.90
2019-06-10T08:10:42.780Z,1999.90
2019-06-10T08:11:46.865Z,1999.90
2019-06-10T08:12:48.640Z,1999.90
2019-06-10T08:13:53.519Z,1999.90
2019-06-10T08:14:55.528Z,1999.90
2019-06-10T08:15:57.934Z,1999.90
2019-06-10T08:17:02.964Z,1999.90
2019-06-10T08:18:04.687Z,1999.90
2019-06-10T08:19:28.960Z,1999.90
2019-06-10T08:20:14.808Z,1999.90
2019-06-10T08:21:17.269Z,1518.70
2019-06-10T08:22:32.993Z,1999.90
2019-06-10T08:23:24.151Z,91.97
2019-06-10T08:24:26.600Z,1999.90
2019-06-10T08:25:29.084Z,1999.90
2019-06-10T08:26:32.455Z,72.25
2019-06-10T08:27:38.247Z,1529.98
2019-06-10T08:28:42.499Z,80.28
2019-06-10T08:29:49.416Z,1527.43
2019-06-10T08:30:52.944Z,1078.08
2019-06-10T08:31:54.608Z,575.72
2019-06-10T08:32:57.057Z,112.20
2019-06-10T08:33:59.468Z,90.53
2019-06-10T08:35:02.761Z,84.65
2019-06-10T08:36:06.654Z,85.97
2019-06-10T08:37:09.069Z,97.37
2019-06-10T08:38:12.454Z,76.87
2019-06-10T08:39:16.044Z,77.08
2019-06-10T08:40:18.642Z,102.58
2019-06-10T08:41:23.096Z,82.60
2019-06-10T08:42:25.600Z,92.45
2019-06-10T08:43:28.080Z,65.30
2019-06-10T08:44:32.808Z,122.60
2019-06-10T08:45:35.054Z,101.55
2019-06-10T08:46:38.760Z,91.30
2019-06-10T08:47:44.332Z,129.23
2019-06-10T08:48:47.767Z,99.17
2019-06-10T08:49:50.279Z,65.65
2019-06-10T08:50:53.328Z,80.80
2019-06-10T08:51:55.954Z,83.55
2019-06-10T08:53:10.409Z,107.63
2019-06-10T08:54:02.907Z,119.50
2019-06-10T08:55:05.542Z,84.77
2019-06-10T08:56:08.001Z,129.23
2019-06-10T08:57:12.710Z,128.27
2019-06-10T08:58:14.781Z,110.35
2019-06-10T08:59:17.217Z,136.82
2019-06-10T09:00:23.274Z,129.57
2019-06-10T09:01:25.205Z,129.27
2019-06-10T09:02:27.909Z,135.70
2019-06-10T09:03:32.272Z,105.15
2019-06-10T09:04:34.677Z,111.10
2019-06-10T09:05:38.779Z,136.47
2019-06-10T09:06:47.267Z,99.67
2019-06-10T09:07:51.376Z,117.75
2019-06-10T09:08:54.584Z,139.00
2019-06-10T09:09:57.271Z,132.40
2019-06-10T09:11:02.085Z,65.72
2019-06-10T09:12:04.707Z,118.87
2019-06-10T09:13:07.358Z,118.33
2019-06-10T09:14:12.448Z,134.63
2019-06-10T09:15:14.781Z,118.45
2019-06-10T09:16:19.454Z,108.75
2019-06-10T09:17:22.835Z,105.92
2019-06-10T09:18:25.427Z,106.32
2019-06-10T09:19:27.890Z,102.20
2019-06-10T09:20:30.317Z,91.95
2019-06-10T09:21:33.157Z,89.62
2019-06-10T09:22:35.941Z,126.40
2019-06-10T09:23:39.256Z,109.80
2019-06-10T09:24:47.039Z,86.75
2019-06-10T09:25:52.911Z,112.52
2019-06-10T09:26:55.023Z,105.72
2019-06-10T09:27:57.616Z,80.17
2019-06-10T09:29:02.696Z,82.25
2019-06-10T09:30:05.352Z,82.97
2019-06-10T09:31:07.885Z,91.17
2019-06-10T09:32:12.489Z,72.53
2019-06-10T09:33:14.865Z,66.37
2019-06-10T09:34:17.295Z,89.03
2019-06-10T09:35:19.972Z,79.27
2019-06-10T09:36:23.563Z,121.28
2019-06-10T09:37:26.482Z,92.37
2019-06-10T09:38:28.899Z,117.57
2019-06-10T09:39:32.888Z,109.32
2019-06-10T09:40:57.636Z,92.00
2019-06-10T09:42:00.924Z,88.75
2019-06-10T09:42:58.652Z,78.85
2019-06-10T09:44:03.203Z,66.97
2019-06-10T09:45:07.779Z,73.30
2019-06-10T09:46:12.541Z,1041.30
2019-06-10T09:47:15.691Z,1051.28
2019-06-10T09:48:22.712Z,90.85
2019-06-10T09:49:25.796Z,1527.90
2019-06-10T09:50:41.211Z,107.75
2019-06-10T09:51:48.511Z,107.50
2019-06-10T09:52:53.364Z,88.12
2019-06-10T09:54:02.441Z,82.50
2019-06-10T09:54:57.972Z,73.37
2019-06-10T09:56:03.852Z,106.85
2019-06-10T09:57:05.118Z,75.08
2019-06-10T09:58:07.558Z,83.58
2019-06-10T09:59:13.223Z,93.75
2019-06-10T10:00:23.408Z,80.95
2019-06-10T10:02:27.911Z,84.07
2019-06-10T10:03:32.599Z,77.97
2019-06-10T10:04:37.597Z,77.08
2019-06-10T10:05:46.460Z,119.60
2019-06-10T10:06:48.953Z,94.92
2019-06-10T10:07:52.996Z,99.37
2019-06-10T10:08:58.438Z,79.55
2019-06-10T10:10:00.776Z,89.70
2019-06-10T10:11:03.347Z,90.07
2019-06-10T10:12:05.973Z,102.30
2019-06-10T10:13:08.657Z,122.25
2019-06-10T10:14:15.834Z,131.67
2019-06-10T10:15:29.760Z,80.40
2019-06-10T10:16:22.316Z,88.30
2019-06-10T10:17:24.453Z,80.22
2019-06-10T10:18:26.939Z,81.45
2019-06-10T10:19:29.491Z,112.47
2019-06-10T10:20:34.082Z,101.80
2019-06-10T10:21:41.219Z,116.93
2019-06-10T10:22:44.377Z,113.00
2019-06-10T10:23:54.217Z,107.00
2019-06-10T10:24:54.478Z,112.83
2019-06-10T10:25:57.100Z,115.37
2019-06-10T10:27:02.664Z,113.92
2019-06-10T10:28:04.555Z,120.25
2019-06-10T10:29:07.000Z,122.60
2019-06-10T10:30:09.728Z,119.13
2019-06-10T10:31:13.133Z,115.05
2019-06-10T10:32:16.001Z,106.92
2019-06-10T10:33:18.675Z,89.72
2019-06-10T10:34:23.547Z,67.85
2019-06-10T10:35:25.661Z,94.55
2019-06-10T10:36:33.685Z,77.40
2019-06-10T10:37:44.635Z,79.35
2019-06-10T10:39:02.266Z,88.47
2019-06-10T10:40:05.479Z,131.10
2019-06-10T10:41:07.930Z,113.92
2019-06-10T10:42:12.485Z,111.03
2019-06-10T10:43:25.240Z,83.12
2019-06-10T10:44:19.288Z,64.62
2019-06-10T10:45:22.774Z,109.10
2019-06-10T10:46:25.473Z,64.77
2019-06-10T10:47:27.936Z,104.23
2019-06-10T10:48:33.245Z,123.30
2019-06-10T10:49:35.376Z,105.63
2019-06-10T10:50:37.802Z,101.12
2019-06-10T10:51:40.447Z,108.92
2019-06-10T10:52:44.234Z,67.60
2019-06-10T10:53:56.232Z,109.32
2019-06-10T10:54:54.003Z,172.72
2019-06-10T10:55:55.967Z,136.80
2019-06-10T10:56:59.145Z,124.85
2019-06-10T10:58:03.182Z,181.30
2019-06-10T10:59:05.767Z,69.92
2019-06-10T11:00:08.846Z,70.15
2019-06-10T11:01:15.164Z,144.85
2019-06-10T11:02:15.850Z,171.75
2019-06-10T11:03:18.613Z,159.57
2019-06-10T11:04:23.141Z,163.60
2019-06-10T11:05:33.830Z,154.30
2019-06-10T11:06:36.490Z,155.27
2019-06-10T11:07:39.178Z,111.60
2019-06-10T11:08:43.076Z,199.87
2019-06-10T11:09:46.649Z,180.03
2019-06-10T11:10:56.990Z,183.93
2019-06-10T11:11:58.508Z,170.05
2019-06-10T11:13:06.300Z,180.40
2019-06-10T11:14:08.763Z,168.82
2019-06-10T11:15:16.153Z,114.15
2019-06-10T11:16:19.055Z,204.50
2019-06-10T11:17:22.693Z,179.72
2019-06-10T11:18:25.669Z,223.32
2019-06-10T11:19:28.115Z,227.90
2019-06-10T11:20:31.523Z,166.82
2019-06-10T11:21:36.236Z,172.80
2019-06-10T11:22:38.685Z,197.93
2019-06-10T11:23:43.633Z,176.65
2019-06-10T11:24:47.625Z,161.12
2019-06-10T11:25:53.304Z,1544.95
2019-06-10T11:26:56.482Z,1999.90
2019-06-10T11:27:59.278Z,1999.90
2019-06-10T11:29:03.004Z,1999.90
2019-06-10T11:30:06.162Z,1999.90
2019-06-10T11:31:08.618Z,233.47
2019-06-10T11:32:11.107Z,144.17
2019-06-10T11:33:13.626Z,142.95
2019-06-10T11:34:19.552Z,1999.90
2019-06-10T11:35:20.569Z,188.60
2019-06-10T11:36:23.293Z,1086.15
2019-06-10T11:37:25.728Z,1999.90
2019-06-10T11:38:28.175Z,1999.90
2019-06-10T11:39:33.033Z,1999.90
2019-06-10T11:40:35.020Z,183.80
2019-06-10T11:41:37.494Z,180.97
2019-06-10T11:42:43.327Z,1543.60
2019-06-10T11:43:46.326Z,1149.95
2019-06-10T11:44:49.018Z,1561.10
2019-06-10T11:45:58.890Z,125.02
2019-06-10T11:46:59.733Z,260.30
2019-06-10T11:48:02.648Z,1101.33
2019-06-10T11:49:05.241Z,161.95
2019-06-10T11:50:08.279Z,151.63
2019-06-10T11:51:13.096Z,187.45
2019-06-10T11:52:15.215Z,150.45
2019-06-10T11:53:17.863Z,1086.13
2019-06-10T11:54:20.283Z,1999.90
2019-06-10T11:55:23.809Z,148.60
2019-06-10T11:56:26.860Z,1999.90
2019-06-10T11:57:29.500Z,1543.80
2019-06-10T11:58:33.319Z,1999.90
2019-06-10T11:59:36.213Z,1999.90
2019-06-10T12:00:39.082Z,590.00
2019-06-10T12:01:42.688Z,131.55
2019-06-10T12:02:45.528Z,1999.90
2019-06-10T12:03:48.477Z,119.40
2019-06-10T12:04:53.636Z,160.63
2019-06-10T12:05:59.286Z,1999.90
2019-06-10T12:07:02.193Z,1075.40
2019-06-10T12:08:04.526Z,1999.90
2019-06-10T12:09:08.901Z,1999.90
2019-06-10T12:10:12.909Z,1088.33
2019-06-10T12:11:15.478Z,1999.90
2019-06-10T12:12:18.021Z,1999.90
2019-06-10T12:13:22.591Z,615.83
2019-06-10T12:14:27.189Z,1999.90
2019-06-10T12:15:34.758Z,128.70
2019-06-10T12:17:15.755Z,1058.70
2019-06-10T12:17:49.878Z,1535.70
2019-06-10T12:18:42.989Z,1999.90
2019-06-10T12:19:45.536Z,1066.13
2019-06-10T12:20:49.522Z,1999.90
2019-06-10T12:21:55.634Z,1999.90
2019-06-10T12:22:58.760Z,1999.90
2019-06-10T12:24:02.776Z,1999.90
2019-06-10T12:25:28.378Z,1999.90
2019-06-10T12:26:10.902Z,1071.10
2019-06-10T12:27:13.433Z,1539.65
2019-06-10T12:28:16.026Z,1070.75
2019-06-10T12:29:19.534Z,160.63
2019-06-10T12:30:22.440Z,642.55
2019-06-10T12:31:25.118Z,1999.90
2019-06-10T12:32:27.549Z,1550.00
2019-06-10T12:33:33.330Z,1999.90
2019-06-10T12:34:34.319Z,220.90
2019-06-10T12:35:36.756Z,1547.10
2019-06-10T12:36:41.052Z,1999.90
2019-06-10T12:37:43.529Z,1999.90
2019-06-10T12:38:46.070Z,1999.90
2019-06-10T12:39:48.624Z,1999.90
2019-06-10T12:40:56.243Z,1548.15
2019-06-10T12:41:58.011Z,1999.90
2019-06-10T12:43:02.572Z,1999.90
2019-06-10T12:44:05.097Z,1999.90
2019-06-10T12:45:08.862Z,1999.90
2019-06-10T12:46:12.756Z,1999.90
2019-06-10T12:47:16.925Z,1550.60
2019-06-10T12:48:22.014Z,1999.90
2019-06-10T12:49:23.974Z,1999.90
2019-06-10T12:50:26.914Z,239.00
2019-06-10T12:51:29.599Z,1530.10
2019-06-10T12:52:32.440Z,1999.90
2019-06-10T12:53:35.141Z,1103.45
2019-06-10T12:54:37.717Z,1999.90
2019-06-10T12:55:44.484Z,1108.25
2019-06-10T12:56:44.578Z,167.85
2019-06-10T12:57:47.121Z,162.50
2019-06-10T12:58:49.543Z,1530.25
2019-06-10T12:59:52.335Z,1083.65